Terminal Aerodrome Forecast
Issued by NWS

Home | Current Version | Previous Version | Graphics & Text | Print | Product List | Glossary On
Versions: 1 2 3 4 5 6 7 8 9 10 11 12 13 14 15 16 17 18 19 20 21 22
000
FTUS43 KUNR 241854 AAA
TAFGCC
TAF AMD
KGCC 241854Z 2419/2518 35009KT P6SM OVC015
     FM250100 29004KT P6SM OVC008
     FM251600 17005KT P6SM OVC015=

USA.gov is the U.S. government's official web portal to all federal, state and local government web resources and services.